Maza, Argentina
Current Conditions -  °F | °C
As of 9:00 AM on Sunday 23 Nov 2014 (Local Time) from SAOC Reporting Station
Clear Clear  
Wind Chill: 73°   Ceiling: Unl
Heat Index: 73°   Visibility: 6mi
Dew Point: 54°   Wind: 18mph
Humidity: 50%   Direction: 340°NNW
Pressure: 29.8"   Gusts: NA
Location:  36.83°S, 63.32°W
Report Text: SAOC 231200Z 34016KT CAVOK 23/12 Q1009
Loading
Personal Weather Stations






























Interactive Weather Map New forecast layout! Learn more

10-Day Weather Forecast

Advertisements
Track Severe Weather on mobile